sensor_id;sensor_type;location;lat;lon;timestamp;P1;durP1;ratioP1;P2;durP2;ratioP2
68523;SDS011;55524;51.380;13.372;2023-03-01T00:03:30;12.43;;;6.22;;
68523;SDS011;55524;51.380;13.372;2023-03-01T00:05:57;11.98;;;6.55;;
68523;SDS011;55524;51.380;13.372;2023-03-01T00:08:24;12.98;;;6.63;;
68523;SDS011;55524;51.380;13.372;2023-03-01T00:11:51;13.25;;;6.20;;
68523;SDS011;55524;51.380;13.372;2023-03-01T00:13:49;14.50;;;6.60;;
68523;SDS011;55524;51.380;13.372;2023-03-01T00:17:02;16.67;;;6.35;;
68523;SDS011;55524;51.380;13.372;2023-03-01T00:19:13;13.65;;;6.80;;
68523;SDS011;55524;51.380;13.372;2023-03-01T00:21:44;16.58;;;7.30;;
68523;SDS011;55524;51.380;13.372;2023-03-01T00:24:10;15.95;;;6.60;;
68523;SDS011;55524;51.380;13.372;2023-03-01T00:26:37;14.55;;;7.05;;
68523;SDS011;55524;51.380;13.372;2023-03-01T00:29:03;10.23;;;6.20;;
68523;SDS011;55524;51.380;13.372;2023-03-01T00:31:30;13.20;;;7.07;;
68523;SDS011;55524;51.380;13.372;2023-03-01T00:33:59;16.27;;;7.13;;
68523;SDS011;55524;51.380;13.372;2023-03-01T00:36:29;17.30;;;7.97;;
68523;SDS011;55524;51.380;13.372;2023-03-01T00:38:57;16.27;;;7.88;;
68523;SDS011;55524;51.380;13.372;2023-03-01T00:44:09;16.60;;;7.35;;
68523;SDS011;55524;51.380;13.372;2023-03-01T00:46:36;13.15;;;7.15;;
68523;SDS011;55524;51.380;13.372;2023-03-01T00:49:03;15.43;;;7.25;;
68523;SDS011;55524;51.380;13.372;2023-03-01T00:51:29;16.17;;;7.45;;
68523;SDS011;55524;51.380;13.372;2023-03-01T00:53:57;15.80;;;6.72;;
68523;SDS011;55524;51.380;13.372;2023-03-01T00:56:25;16.40;;;7.40;;
68523;SDS011;55524;51.380;13.372;2023-03-01T00:58:53;13.93;;;7.28;;
68523;SDS011;55524;51.380;13.372;2023-03-01T01:01:23;16.88;;;6.70;;
68523;SDS011;55524;51.380;13.372;2023-03-01T01:03:58;14.65;;;6.65;;
68523;SDS011;55524;51.380;13.372;2023-03-01T01:06:34;13.00;;;6.93;;
68523;SDS011;55524;51.380;13.372;2023-03-01T01:09:03;13.77;;;7.35;;
68523;SDS011;55524;51.380;13.372;2023-03-01T01:11:32;15.43;;;7.30;;
68523;SDS011;55524;51.380;13.372;2023-03-01T01:14:00;14.65;;;7.20;;
68523;SDS011;55524;51.380;13.372;2023-03-01T01:16:28;17.05;;;6.43;;
68523;SDS011;55524;51.380;13.372;2023-03-01T01:18:54;14.43;;;6.82;;
68523;SDS011;55524;51.380;13.372;2023-03-01T01:21:22;12.25;;;6.53;;
68523;SDS011;55524;51.380;13.372;2023-03-01T01:23:49;15.55;;;7.18;;
68523;SDS011;55524;51.380;13.372;2023-03-01T01:26:20;16.67;;;7.13;;
68523;SDS011;55524;51.380;13.372;2023-03-01T01:28:49;18.65;;;7.25;;
68523;SDS011;55524;51.380;13.372;2023-03-01T01:31:16;16.75;;;7.97;;
68523;SDS011;55524;51.380;13.372;2023-03-01T01:33:43;13.75;;;7.20;;
68523;SDS011;55524;51.380;13.372;2023-03-01T01:36:09;17.80;;;7.07;;
68523;SDS011;55524;51.380;13.372;2023-03-01T01:38:36;11.95;;;7.10;;
68523;SDS011;55524;51.380;13.372;2023-03-01T01:41:04;13.70;;;7.20;;
68523;SDS011;55524;51.380;13.372;2023-03-01T01:43:34;11.82;;;7.07;;
68523;SDS011;55524;51.380;13.372;2023-03-01T01:48:41;16.17;;;7.50;;
68523;SDS011;55524;51.380;13.372;2023-03-01T01:51:22;14.10;;;7.45;;
68523;SDS011;55524;51.380;13.372;2023-03-01T01:56:39;12.00;;;6.68;;
68523;SDS011;55524;51.380;13.372;2023-03-01T01:59:09;15.50;;;7.15;;
68523;SDS011;55524;51.380;13.372;2023-03-01T02:01:36;15.32;;;6.38;;
68523;SDS011;55524;51.380;13.372;2023-03-01T02:04:03;12.52;;;7.25;;
68523;SDS011;55524;51.380;13.372;2023-03-01T02:06:33;13.75;;;6.82;;
68523;SDS011;55524;51.380;13.372;2023-03-01T02:09:06;10.35;;;6.47;;
68523;SDS011;55524;51.380;13.372;2023-03-01T02:11:37;16.52;;;6.78;;
68523;SDS011;55524;51.380;13.372;2023-03-01T02:14:04;16.25;;;7.38;;
68523;SDS011;55524;51.380;13.372;2023-03-01T02:16:31;14.13;;;6.75;;
68523;SDS011;55524;51.380;13.372;2023-03-01T02:18:57;14.65;;;6.38;;
68523;SDS011;55524;51.380;13.372;2023-03-01T02:26:53;17.48;;;7.63;;
68523;SDS011;55524;51.380;13.372;2023-03-01T02:29:24;15.75;;;8.27;;
68523;SDS011;55524;51.380;13.372;2023-03-01T02:31:52;14.43;;;7.25;;
68523;SDS011;55524;51.380;13.372;2023-03-01T02:34:22;14.93;;;7.97;;
68523;SDS011;55524;51.380;13.372;2023-03-01T02:39:39;18.27;;;7.68;;
68523;SDS011;55524;51.380;13.372;2023-03-01T02:42:14;17.48;;;8.00;;
68523;SDS011;55524;51.380;13.372;2023-03-01T02:44:45;17.58;;;8.35;;
68523;SDS011;55524;51.380;13.372;2023-03-01T02:47:11;17.20;;;8.45;;
68523;SDS011;55524;51.380;13.372;2023-03-01T02:49:37;22.00;;;8.70;;
68523;SDS011;55524;51.380;13.372;2023-03-01T02:57:27;13.60;;;6.70;;
68523;SDS011;55524;51.380;13.372;2023-03-01T02:59:55;14.40;;;7.63;;
68523;SDS011;55524;51.380;13.372;2023-03-01T03:02:26;14.82;;;7.93;;
68523;SDS011;55524;51.380;13.372;2023-03-01T03:07:57;15.77;;;7.38;;
68523;SDS011;55524;51.380;13.372;2023-03-01T03:10:31;15.45;;;7.45;;
68523;SDS011;55524;51.380;13.372;2023-03-01T03:13:01;15.82;;;7.07;;
68523;SDS011;55524;51.380;13.372;2023-03-01T03:15:33;19.00;;;7.22;;
68523;SDS011;55524;51.380;13.372;2023-03-01T03:18:05;15.15;;;7.78;;
68523;SDS011;55524;51.380;13.372;2023-03-01T03:20:33;16.55;;;7.30;;
68523;SDS011;55524;51.380;13.372;2023-03-01T03:23:01;14.80;;;7.47;;
68523;SDS011;55524;51.380;13.372;2023-03-01T03:25:28;12.90;;;7.35;;
68523;SDS011;55524;51.380;13.372;2023-03-01T03:27:55;12.80;;;7.03;;
68523;SDS011;55524;51.380;13.372;2023-03-01T03:30:29;15.38;;;7.25;;
68523;SDS011;55524;51.380;13.372;2023-03-01T03:32:57;15.50;;;7.55;;
68523;SDS011;55524;51.380;13.372;2023-03-01T03:35:25;18.13;;;7.72;;
68523;SDS011;55524;51.380;13.372;2023-03-01T03:37:57;14.95;;;7.50;;
68523;SDS011;55524;51.380;13.372;2023-03-01T03:40:37;18.63;;;8.25;;
68523;SDS011;55524;51.380;13.372;2023-03-01T03:43:06;16.38;;;7.72;;
68523;SDS011;55524;51.380;13.372;2023-03-01T03:45:34;16.38;;;7.57;;
68523;SDS011;55524;51.380;13.372;2023-03-01T03:48:01;14.38;;;7.70;;
68523;SDS011;55524;51.380;13.372;2023-03-01T03:50:29;15.73;;;7.75;;
68523;SDS011;55524;51.380;13.372;2023-03-01T03:52:56;15.63;;;7.90;;
68523;SDS011;55524;51.380;13.372;2023-03-01T03:55:25;16.08;;;7.63;;
68523;SDS011;55524;51.380;13.372;2023-03-01T03:57:55;15.95;;;8.20;;
68523;SDS011;55524;51.380;13.372;2023-03-01T04:00:27;17.30;;;7.88;;
68523;SDS011;55524;51.380;13.372;2023-03-01T04:02:53;15.90;;;8.18;;
68523;SDS011;55524;51.380;13.372;2023-03-01T04:05:21;19.67;;;7.72;;
68523;SDS011;55524;51.380;13.372;2023-03-01T04:07:48;18.27;;;8.88;;
68523;SDS011;55524;51.380;13.372;2023-03-01T04:10:25;19.52;;;9.23;;
68523;SDS011;55524;51.380;13.372;2023-03-01T04:12:53;17.25;;;8.05;;
68523;SDS011;55524;51.380;13.372;2023-03-01T04:15:21;15.13;;;7.72;;
68523;SDS011;55524;51.380;13.372;2023-03-01T04:17:49;15.50;;;7.43;;
68523;SDS011;55524;51.380;13.372;2023-03-01T04:20:19;12.43;;;6.60;;
68523;SDS011;55524;51.380;13.372;2023-03-01T04:22:49;12.93;;;7.18;;
68523;SDS011;55524;51.380;13.372;2023-03-01T04:25:24;13.98;;;7.65;;
68523;SDS011;55524;51.380;13.372;2023-03-01T04:27:51;16.52;;;7.32;;
68523;SDS011;55524;51.380;13.372;2023-03-01T04:30:17;11.18;;;7.07;;
68523;SDS011;55524;51.380;13.372;2023-03-01T04:32:43;12.88;;;6.80;;
68523;SDS011;55524;51.380;13.372;2023-03-01T04:35:10;16.30;;;7.68;;
68523;SDS011;55524;51.380;13.372;2023-03-01T04:37:36;15.43;;;7.40;;
68523;SDS011;55524;51.380;13.372;2023-03-01T04:40:02;19.23;;;8.10;;
68523;SDS011;55524;51.380;13.372;2023-03-01T04:42:42;15.45;;;7.68;;
68523;SDS011;55524;51.380;13.372;2023-03-01T04:45:09;15.70;;;7.20;;
68523;SDS011;55524;51.380;13.372;2023-03-01T04:47:41;15.35;;;7.30;;
68523;SDS011;55524;51.380;13.372;2023-03-01T04:50:12;16.63;;;7.13;;
68523;SDS011;55524;51.380;13.372;2023-03-01T04:52:40;13.98;;;7.10;;
68523;SDS011;55524;51.380;13.372;2023-03-01T04:55:07;15.63;;;7.45;;
68523;SDS011;55524;51.380;13.372;2023-03-01T04:57:34;12.52;;;7.63;;
68523;SDS011;55524;51.380;13.372;2023-03-01T05:00:01;12.30;;;6.55;;
68523;SDS011;55524;51.380;13.372;2023-03-01T05:02:45;28.25;;;9.27;;
68523;SDS011;55524;51.380;13.372;2023-03-01T05:05:13;30.88;;;9.68;;
68523;SDS011;55524;51.380;13.372;2023-03-01T05:07:40;20.92;;;8.25;;
68523;SDS011;55524;51.380;13.372;2023-03-01T05:10:06;18.60;;;7.45;;
68523;SDS011;55524;51.380;13.372;2023-03-01T05:12:33;15.00;;;7.85;;
68523;SDS011;55524;51.380;13.372;2023-03-01T05:14:59;18.83;;;8.15;;
68523;SDS011;55524;51.380;13.372;2023-03-01T05:17:25;16.17;;;7.55;;
68523;SDS011;55524;51.380;13.372;2023-03-01T05:19:52;17.00;;;8.00;;
68523;SDS011;55524;51.380;13.372;2023-03-01T05:22:20;11.50;;;6.75;;
68523;SDS011;55524;51.380;13.372;2023-03-01T05:24:47;15.50;;;7.30;;
68523;SDS011;55524;51.380;13.372;2023-03-01T05:27:14;14.25;;;7.15;;
68523;SDS011;55524;51.380;13.372;2023-03-01T05:29:40;15.48;;;7.03;;
68523;SDS011;55524;51.380;13.372;2023-03-01T05:32:06;16.73;;;8.00;;
68523;SDS011;55524;51.380;13.372;2023-03-01T05:34:34;21.23;;;7.75;;
68523;SDS011;55524;51.380;13.372;2023-03-01T05:37:02;12.68;;;7.25;;
68523;SDS011;55524;51.380;13.372;2023-03-01T05:39:30;21.27;;;7.30;;
68523;SDS011;55524;51.380;13.372;2023-03-01T05:41:57;15.25;;;7.32;;
68523;SDS011;55524;51.380;13.372;2023-03-01T05:44:26;15.80;;;7.82;;
68523;SDS011;55524;51.380;13.372;2023-03-01T05:46:53;18.15;;;7.68;;
68523;SDS011;55524;51.380;13.372;2023-03-01T05:49:20;16.88;;;7.50;;
68523;SDS011;55524;51.380;13.372;2023-03-01T05:51:49;17.83;;;8.27;;
68523;SDS011;55524;51.380;13.372;2023-03-01T05:54:17;15.73;;;7.90;;
68523;SDS011;55524;51.380;13.372;2023-03-01T05:56:45;13.73;;;7.70;;
68523;SDS011;55524;51.380;13.372;2023-03-01T05:59:11;15.77;;;6.95;;
68523;SDS011;55524;51.380;13.372;2023-03-01T06:01:38;15.70;;;7.50;;
68523;SDS011;55524;51.380;13.372;2023-03-01T06:04:05;16.55;;;7.30;;
68523;SDS011;55524;51.380;13.372;2023-03-01T06:06:37;16.67;;;7.75;;
68523;SDS011;55524;51.380;13.372;2023-03-01T06:09:05;12.45;;;7.47;;
68523;SDS011;55524;51.380;13.372;2023-03-01T06:11:34;13.60;;;7.28;;
68523;SDS011;55524;51.380;13.372;2023-03-01T06:14:02;20.30;;;7.72;;
68523;SDS011;55524;51.380;13.372;2023-03-01T06:16:29;13.32;;;7.30;;
68523;SDS011;55524;51.380;13.372;2023-03-01T06:18:55;13.60;;;6.53;;
68523;SDS011;55524;51.380;13.372;2023-03-01T06:21:21;16.88;;;7.28;;
68523;SDS011;55524;51.380;13.372;2023-03-01T06:23:48;13.68;;;7.13;;
68523;SDS011;55524;51.380;13.372;2023-03-01T06:26:14;15.65;;;8.05;;
68523;SDS011;55524;51.380;13.372;2023-03-01T06:28:40;17.15;;;6.97;;
68523;SDS011;55524;51.380;13.372;2023-03-01T06:31:07;14.48;;;6.95;;
68523;SDS011;55524;51.380;13.372;2023-03-01T06:33:33;13.63;;;7.63;;
68523;SDS011;55524;51.380;13.372;2023-03-01T06:36:01;16.20;;;7.40;;
68523;SDS011;55524;51.380;13.372;2023-03-01T06:38:27;21.25;;;7.82;;
68523;SDS011;55524;51.380;13.372;2023-03-01T06:40:53;15.02;;;7.43;;
68523;SDS011;55524;51.380;13.372;2023-03-01T06:43:21;48.35;;;9.15;;
68523;SDS011;55524;51.380;13.372;2023-03-01T06:45:49;20.58;;;7.70;;
68523;SDS011;55524;51.380;13.372;2023-03-01T06:48:15;24.20;;;8.25;;
68523;SDS011;55524;51.380;13.372;2023-03-01T06:50:42;17.92;;;7.35;;
68523;SDS011;55524;51.380;13.372;2023-03-01T06:53:09;25.98;;;8.52;;
68523;SDS011;55524;51.380;13.372;2023-03-01T06:55:36;17.13;;;8.75;;
68523;SDS011;55524;51.380;13.372;2023-03-01T06:58:02;20.60;;;8.15;;
68523;SDS011;55524;51.380;13.372;2023-03-01T07:00:29;21.85;;;9.05;;
68523;SDS011;55524;51.380;13.372;2023-03-01T07:02:58;24.13;;;9.18;;
68523;SDS011;55524;51.380;13.372;2023-03-01T07:05:26;92.25;;;12.95;;
68523;SDS011;55524;51.380;13.372;2023-03-01T07:07:53;34.65;;;9.15;;
68523;SDS011;55524;51.380;13.372;2023-03-01T07:10:20;23.60;;;8.85;;
68523;SDS011;55524;51.380;13.372;2023-03-01T07:12:47;28.60;;;9.48;;
68523;SDS011;55524;51.380;13.372;2023-03-01T07:15:13;33.40;;;9.95;;
68523;SDS011;55524;51.380;13.372;2023-03-01T07:17:40;20.45;;;8.93;;
68523;SDS011;55524;51.380;13.372;2023-03-01T07:20:06;28.70;;;10.13;;
68523;SDS011;55524;51.380;13.372;2023-03-01T07:22:33;27.55;;;10.15;;
68523;SDS011;55524;51.380;13.372;2023-03-01T07:24:59;18.40;;;8.88;;
68523;SDS011;55524;51.380;13.372;2023-03-01T07:27:25;23.00;;;10.43;;
68523;SDS011;55524;51.380;13.372;2023-03-01T07:29:52;31.65;;;11.38;;
68523;SDS011;55524;51.380;13.372;2023-03-01T07:32:18;25.95;;;11.65;;
68523;SDS011;55524;51.380;13.372;2023-03-01T07:34:44;30.55;;;11.75;;
68523;SDS011;55524;51.380;13.372;2023-03-01T07:37:10;27.20;;;10.82;;
68523;SDS011;55524;51.380;13.372;2023-03-01T07:39:37;22.30;;;9.60;;
68523;SDS011;55524;51.380;13.372;2023-03-01T07:42:03;21.25;;;10.05;;
68523;SDS011;55524;51.380;13.372;2023-03-01T07:44:29;22.08;;;9.70;;
68523;SDS011;55524;51.380;13.372;2023-03-01T07:46:55;19.40;;;9.48;;
68523;SDS011;55524;51.380;13.372;2023-03-01T07:49:23;25.10;;;10.45;;
68523;SDS011;55524;51.380;13.372;2023-03-01T07:51:51;20.13;;;10.05;;
68523;SDS011;55524;51.380;13.372;2023-03-01T07:54:17;19.77;;;9.25;;
68523;SDS011;55524;51.380;13.372;2023-03-01T07:56:44;23.20;;;9.20;;
68523;SDS011;55524;51.380;13.372;2023-03-01T07:59:10;22.35;;;9.65;;
68523;SDS011;55524;51.380;13.372;2023-03-01T08:01:37;15.32;;;8.85;;
68523;SDS011;55524;51.380;13.372;2023-03-01T08:04:03;25.10;;;9.68;;
68523;SDS011;55524;51.380;13.372;2023-03-01T08:06:33;18.45;;;9.05;;
68523;SDS011;55524;51.380;13.372;2023-03-01T08:09:00;16.95;;;8.95;;
68523;SDS011;55524;51.380;13.372;2023-03-01T08:11:26;18.67;;;9.23;;
68523;SDS011;55524;51.380;13.372;2023-03-01T08:13:56;118.60;;;18.02;;
68523;SDS011;55524;51.380;13.372;2023-03-01T08:16:22;18.20;;;9.60;;
68523;SDS011;55524;51.380;13.372;2023-03-01T08:18:49;17.08;;;9.38;;
68523;SDS011;55524;51.380;13.372;2023-03-01T08:21:16;26.17;;;10.35;;
68523;SDS011;55524;51.380;13.372;2023-03-01T08:23:43;18.70;;;9.98;;
68523;SDS011;55524;51.380;13.372;2023-03-01T08:28:37;23.00;;;10.10;;
68523;SDS011;55524;51.380;13.372;2023-03-01T08:31:23;19.90;;;9.65;;
68523;SDS011;55524;51.380;13.372;2023-03-01T08:33:53;18.83;;;9.85;;
68523;SDS011;55524;51.380;13.372;2023-03-01T08:36:21;26.27;;;10.85;;
68523;SDS011;55524;51.380;13.372;2023-03-01T08:38:49;23.73;;;11.98;;
68523;SDS011;55524;51.380;13.372;2023-03-01T08:41:15;19.80;;;9.65;;
68523;SDS011;55524;51.380;13.372;2023-03-01T08:43:42;19.88;;;10.25;;
68523;SDS011;55524;51.380;13.372;2023-03-01T08:46:08;24.92;;;11.70;;
68523;SDS011;55524;51.380;13.372;2023-03-01T08:48:35;24.25;;;10.32;;
68523;SDS011;55524;51.380;13.372;2023-03-01T08:51:35;24.70;;;11.40;;
68523;SDS011;55524;51.380;13.372;2023-03-01T08:53:54;25.33;;;10.93;;
68523;SDS011;55524;51.380;13.372;2023-03-01T08:56:20;27.65;;;10.95;;
68523;SDS011;55524;51.380;13.372;2023-03-01T08:58:47;22.23;;;10.43;;
68523;SDS011;55524;51.380;13.372;2023-03-01T09:01:15;22.65;;;11.30;;
68523;SDS011;55524;51.380;13.372;2023-03-01T09:03:43;24.95;;;10.93;;
68523;SDS011;55524;51.380;13.372;2023-03-01T09:06:10;21.50;;;10.38;;
68523;SDS011;55524;51.380;13.372;2023-03-01T09:08:37;27.33;;;12.20;;
68523;SDS011;55524;51.380;13.372;2023-03-01T09:11:06;23.80;;;11.50;;
68523;SDS011;55524;51.380;13.372;2023-03-01T09:13:35;25.25;;;11.75;;
68523;SDS011;55524;51.380;13.372;2023-03-01T09:16:03;24.92;;;11.52;;
68523;SDS011;55524;51.380;13.372;2023-03-01T09:18:31;24.60;;;12.98;;
68523;SDS011;55524;51.380;13.372;2023-03-01T09:21:08;25.88;;;12.23;;
68523;SDS011;55524;51.380;13.372;2023-03-01T09:23:39;26.05;;;12.32;;
68523;SDS011;55524;51.380;13.372;2023-03-01T09:26:07;27.73;;;13.25;;
68523;SDS011;55524;51.380;13.372;2023-03-01T09:28:35;41.92;;;13.23;;
68523;SDS011;55524;51.380;13.372;2023-03-01T09:31:02;30.13;;;12.50;;
68523;SDS011;55524;51.380;13.372;2023-03-01T09:33:30;29.50;;;13.38;;
68523;SDS011;55524;51.380;13.372;2023-03-01T09:35:58;27.95;;;13.25;;
68523;SDS011;55524;51.380;13.372;2023-03-01T09:38:26;30.27;;;13.05;;
68523;SDS011;55524;51.380;13.372;2023-03-01T09:40:52;31.35;;;14.23;;
68523;SDS011;55524;51.380;13.372;2023-03-01T09:43:30;30.08;;;12.80;;
68523;SDS011;55524;51.380;13.372;2023-03-01T09:46:10;25.08;;;12.93;;
68523;SDS011;55524;51.380;13.372;2023-03-01T09:48:46;31.77;;;13.57;;
68523;SDS011;55524;51.380;13.372;2023-03-01T09:51:19;26.15;;;13.25;;
68523;SDS011;55524;51.380;13.372;2023-03-01T09:53:54;32.95;;;13.10;;
68523;SDS011;55524;51.380;13.372;2023-03-01T10:01:38;30.13;;;13.13;;
68523;SDS011;55524;51.380;13.372;2023-03-01T10:04:24;27.65;;;13.35;;
68523;SDS011;55524;51.380;13.372;2023-03-01T10:07:14;28.55;;;13.02;;
68523;SDS011;55524;51.380;13.372;2023-03-01T10:10:04;27.50;;;12.50;;
68523;SDS011;55524;51.380;13.372;2023-03-01T10:12:35;26.43;;;12.40;;
68523;SDS011;55524;51.380;13.372;2023-03-01T10:20:42;29.45;;;11.52;;
68523;SDS011;55524;51.380;13.372;2023-03-01T10:23:16;27.17;;;12.35;;
68523;SDS011;55524;51.380;13.372;2023-03-01T10:25:44;23.25;;;12.10;;
68523;SDS011;55524;51.380;13.372;2023-03-01T10:28:44;27.23;;;12.73;;
68523;SDS011;55524;51.380;13.372;2023-03-01T10:31:18;20.33;;;10.77;;
68523;SDS011;55524;51.380;13.372;2023-03-01T10:33:54;21.30;;;10.88;;
68523;SDS011;55524;51.380;13.372;2023-03-01T10:36:22;24.85;;;10.80;;
68523;SDS011;55524;51.380;13.372;2023-03-01T10:41:20;27.95;;;12.23;;
68523;SDS011;55524;51.380;13.372;2023-03-01T10:43:52;22.25;;;11.77;;
68523;SDS011;55524;51.380;13.372;2023-03-01T10:51:41;24.38;;;11.77;;
68523;SDS011;55524;51.380;13.372;2023-03-01T10:54:16;27.17;;;11.80;;
68523;SDS011;55524;51.380;13.372;2023-03-01T10:56:46;24.00;;;11.73;;
68523;SDS011;55524;51.380;13.372;2023-03-01T10:59:34;25.40;;;11.73;;
68523;SDS011;55524;51.380;13.372;2023-03-01T11:04:56;26.80;;;11.10;;
68523;SDS011;55524;51.380;13.372;2023-03-01T11:07:26;19.38;;;10.13;;
68523;SDS011;55524;51.380;13.372;2023-03-01T11:09:53;20.75;;;9.48;;
68523;SDS011;55524;51.380;13.372;2023-03-01T11:12:20;19.67;;;9.40;;
68523;SDS011;55524;51.380;13.372;2023-03-01T11:14:50;18.40;;;9.48;;
68523;SDS011;55524;51.380;13.372;2023-03-01T11:17:25;20.00;;;9.40;;
68523;SDS011;55524;51.380;13.372;2023-03-01T11:20:54;19.23;;;9.80;;
68523;SDS011;55524;51.380;13.372;2023-03-01T11:23:12;23.63;;;9.63;;
68523;SDS011;55524;51.380;13.372;2023-03-01T11:25:42;24.83;;;10.68;;
68523;SDS011;55524;51.380;13.372;2023-03-01T11:28:15;20.80;;;10.23;;
68523;SDS011;55524;51.380;13.372;2023-03-01T11:30:54;24.25;;;10.13;;
68523;SDS011;55524;51.380;13.372;2023-03-01T11:36:35;15.95;;;8.38;;
68523;SDS011;55524;51.380;13.372;2023-03-01T11:42:48;22.15;;;10.13;;
68523;SDS011;55524;51.380;13.372;2023-03-01T11:44:59;15.48;;;8.68;;
68523;SDS011;55524;51.380;13.372;2023-03-01T11:56:13;17.65;;;8.75;;
68523;SDS011;55524;51.380;13.372;2023-03-01T12:12:58;15.63;;;8.00;;
68523;SDS011;55524;51.380;13.372;2023-03-01T12:15:51;17.73;;;9.00;;
68523;SDS011;55524;51.380;13.372;2023-03-01T12:21:21;15.57;;;8.73;;
68523;SDS011;55524;51.380;13.372;2023-03-01T12:38:41;14.48;;;7.95;;
68523;SDS011;55524;51.380;13.372;2023-03-01T12:41:29;13.75;;;6.88;;
68523;SDS011;55524;51.380;13.372;2023-03-01T12:49:35;12.77;;;7.25;;
68523;SDS011;55524;51.380;13.372;2023-03-01T12:52:56;16.13;;;6.97;;
68523;SDS011;55524;51.380;13.372;2023-03-01T12:55:29;12.43;;;6.78;;
68523;SDS011;55524;51.380;13.372;2023-03-01T13:00:45;19.88;;;8.98;;
68523;SDS011;55524;51.380;13.372;2023-03-01T13:04:15;15.93;;;7.55;;
68523;SDS011;55524;51.380;13.372;2023-03-01T13:09:24;12.93;;;6.82;;
68523;SDS011;55524;51.380;13.372;2023-03-01T13:17:52;12.35;;;6.78;;
68523;SDS011;55524;51.380;13.372;2023-03-01T13:20:25;13.20;;;7.03;;
68523;SDS011;55524;51.380;13.372;2023-03-01T13:23:03;12.75;;;6.93;;
68523;SDS011;55524;51.380;13.372;2023-03-01T13:25:51;14.10;;;6.90;;
68523;SDS011;55524;51.380;13.372;2023-03-01T13:31:06;14.43;;;8.80;;
68523;SDS011;55524;51.380;13.372;2023-03-01T13:36:11;12.68;;;5.57;;
68523;SDS011;55524;51.380;13.372;2023-03-01T13:39:03;43.00;;;18.88;;
68523;SDS011;55524;51.380;13.372;2023-03-01T13:41:52;45.22;;;22.80;;
68523;SDS011;55524;51.380;13.372;2023-03-01T13:46:52;21.23;;;11.82;;
68523;SDS011;55524;51.380;13.372;2023-03-01T13:54:58;14.63;;;8.30;;
68523;SDS011;55524;51.380;13.372;2023-03-01T13:57:36;17.90;;;9.85;;
68523;SDS011;55524;51.380;13.372;2023-03-01T14:00:06;17.73;;;8.80;;
68523;SDS011;55524;51.380;13.372;2023-03-01T14:05:59;11.88;;;6.72;;
68523;SDS011;55524;51.380;13.372;2023-03-01T14:08:26;15.05;;;7.70;;
68523;SDS011;55524;51.380;13.372;2023-03-01T14:11:08;9.88;;;6.45;;
68523;SDS011;55524;51.380;13.372;2023-03-01T14:19:35;15.27;;;7.72;;
68523;SDS011;55524;51.380;13.372;2023-03-01T14:24:54;27.20;;;14.53;;
68523;SDS011;55524;51.380;13.372;2023-03-01T14:27:26;12.73;;;7.43;;
68523;SDS011;55524;51.380;13.372;2023-03-01T14:30:01;29.40;;;11.75;;
68523;SDS011;55524;51.380;13.372;2023-03-01T14:32:35;9.38;;;5.70;;
68523;SDS011;55524;51.380;13.372;2023-03-01T14:35:01;14.82;;;6.90;;
68523;SDS011;55524;51.380;13.372;2023-03-01T14:37:28;13.68;;;6.45;;
68523;SDS011;55524;51.380;13.372;2023-03-01T14:39:57;18.85;;;7.07;;
68523;SDS011;55524;51.380;13.372;2023-03-01T14:42:27;11.50;;;6.38;;
68523;SDS011;55524;51.380;13.372;2023-03-01T14:44:59;19.63;;;6.75;;
68523;SDS011;55524;51.380;13.372;2023-03-01T14:50:02;13.80;;;6.78;;
68523;SDS011;55524;51.380;13.372;2023-03-01T14:52:38;15.95;;;7.18;;
68523;SDS011;55524;51.380;13.372;2023-03-01T14:55:13;25.08;;;8.95;;
68523;SDS011;55524;51.380;13.372;2023-03-01T14:57:52;70.00;;;19.17;;
68523;SDS011;55524;51.380;13.372;2023-03-01T15:00:23;27.40;;;11.77;;
68523;SDS011;55524;51.380;13.372;2023-03-01T15:02:55;12.20;;;6.30;;
68523;SDS011;55524;51.380;13.372;2023-03-01T15:05:27;20.83;;;8.77;;
68523;SDS011;55524;51.380;13.372;2023-03-01T15:07:57;20.95;;;8.98;;
68523;SDS011;55524;51.380;13.372;2023-03-01T15:10:30;20.60;;;8.00;;
68523;SDS011;55524;51.380;13.372;2023-03-01T15:13:21;13.50;;;6.68;;
68523;SDS011;55524;51.380;13.372;2023-03-01T15:15:50;21.23;;;8.85;;
68523;SDS011;55524;51.380;13.372;2023-03-01T15:18:26;15.00;;;7.57;;
68523;SDS011;55524;51.380;13.372;2023-03-01T15:20:55;20.88;;;8.10;;
68523;SDS011;55524;51.380;13.372;2023-03-01T15:23:30;15.00;;;6.82;;
68523;SDS011;55524;51.380;13.372;2023-03-01T15:25:57;11.85;;;6.80;;
68523;SDS011;55524;51.380;13.372;2023-03-01T15:28:26;16.63;;;7.18;;
68523;SDS011;55524;51.380;13.372;2023-03-01T15:30:57;15.70;;;7.63;;
68523;SDS011;55524;51.380;13.372;2023-03-01T15:35:52;13.23;;;6.93;;
68523;SDS011;55524;51.380;13.372;2023-03-01T15:38:24;25.85;;;9.68;;
68523;SDS011;55524;51.380;13.372;2023-03-01T15:40:54;17.70;;;9.18;;
68523;SDS011;55524;51.380;13.372;2023-03-01T15:46:21;11.85;;;6.20;;
68523;SDS011;55524;51.380;13.372;2023-03-01T15:49:19;14.40;;;7.28;;
68523;SDS011;55524;51.380;13.372;2023-03-01T15:51:51;15.73;;;9.02;;
68523;SDS011;55524;51.380;13.372;2023-03-01T15:54:20;17.13;;;7.93;;
68523;SDS011;55524;51.380;13.372;2023-03-01T15:56:50;16.58;;;9.90;;
68523;SDS011;55524;51.380;13.372;2023-03-01T15:59:16;15.07;;;7.55;;
68523;SDS011;55524;51.380;13.372;2023-03-01T16:01:44;16.17;;;7.07;;
68523;SDS011;55524;51.380;13.372;2023-03-01T16:04:14;16.48;;;8.57;;
68523;SDS011;55524;51.380;13.372;2023-03-01T16:06:46;20.13;;;8.77;;
68523;SDS011;55524;51.380;13.372;2023-03-01T16:09:20;17.00;;;8.80;;
68523;SDS011;55524;51.380;13.372;2023-03-01T16:11:48;14.80;;;7.40;;
68523;SDS011;55524;51.380;13.372;2023-03-01T16:14:15;15.80;;;7.90;;
68523;SDS011;55524;51.380;13.372;2023-03-01T16:16:42;21.90;;;10.20;;
68523;SDS011;55524;51.380;13.372;2023-03-01T16:19:09;23.85;;;10.80;;
68523;SDS011;55524;51.380;13.372;2023-03-01T16:21:35;27.88;;;12.57;;
68523;SDS011;55524;51.380;13.372;2023-03-01T16:24:02;23.52;;;10.52;;
68523;SDS011;55524;51.380;13.372;2023-03-01T16:26:29;22.75;;;10.45;;
68523;SDS011;55524;51.380;13.372;2023-03-01T16:28:56;27.25;;;12.80;;
68523;SDS011;55524;51.380;13.372;2023-03-01T16:31:23;21.25;;;10.65;;
68523;SDS011;55524;51.380;13.372;2023-03-01T16:33:55;37.10;;;15.65;;
68523;SDS011;55524;51.380;13.372;2023-03-01T16:36:23;961.90;;;285.07;;
68523;SDS011;55524;51.380;13.372;2023-03-01T16:38:51;635.53;;;241.70;;
68523;SDS011;55524;51.380;13.372;2023-03-01T16:41:18;134.95;;;64.45;;
68523;SDS011;55524;51.380;13.372;2023-03-01T16:43:46;114.53;;;62.83;;
68523;SDS011;55524;51.380;13.372;2023-03-01T16:46:17;46.33;;;22.83;;
68523;SDS011;55524;51.380;13.372;2023-03-01T16:48:45;39.03;;;26.35;;
68523;SDS011;55524;51.380;13.372;2023-03-01T16:51:12;31.40;;;16.58;;
68523;SDS011;55524;51.380;13.372;2023-03-01T16:53:39;31.92;;;17.15;;
68523;SDS011;55524;51.380;13.372;2023-03-01T16:56:06;26.15;;;14.38;;
68523;SDS011;55524;51.380;13.372;2023-03-01T16:58:35;22.17;;;13.45;;
68523;SDS011;55524;51.380;13.372;2023-03-01T17:01:06;24.50;;;15.32;;
68523;SDS011;55524;51.380;13.372;2023-03-01T17:03:33;24.52;;;12.93;;
68523;SDS011;55524;51.380;13.372;2023-03-01T17:06:01;23.17;;;12.30;;